Time;durP1;ratioP1;P1;durP2;ratioP2;P2;SDS_P1;SDS_P2;PMS_P1;PMS_P2;Temp;Humidity;BMP_temperature;BMP_pressure;BME280_temperature;BME280_humidity;BME280_pressure;Samples;Min_cycle;Max_cycle;Signal;HPM_P1;HPM_P2
2024/02/09 00:01:15;;;;;;;99.32;59.05;;;10.10;99.90;;;;;;6185739;23;20012;-73
2024/02/09 00:03:41;;;;;;;95.72;57.58;;;10.10;99.90;;;;;;6185846;23;19997;-72
2024/02/09 00:06:07;;;;;;;93.50;59.10;;;10.10;99.90;;;;;;6186315;23;20015;-73
2024/02/09 00:08:35;;;;;;;101.78;61.70;;;10.10;99.90;;;;;;6184841;23;20080;-72
2024/02/09 00:11:01;;;;;;;91.15;59.70;;;10.10;99.90;;;;;;6186331;23;20091;-72
2024/02/09 00:13:28;;;;;;;87.13;57.45;;;10.10;99.90;;;;;;6186057;23;20039;-73
2024/02/09 00:15:57;;;;;;;90.93;58.30;;;10.10;99.90;;;;;;6185999;23;20064;-73
2024/02/09 00:22:35;;;;;;;85.93;53.35;;;10.10;99.90;;;;;;6186516;23;20012;-72
2024/02/09 00:45:36;;;;;;;76.57;50.20;;;10.00;99.90;;;;;;6130767;23;20499;-72
2024/02/09 00:48:03;;;;;;;77.95;49.33;;;10.00;99.90;;;;;;6183422;23;20016;-72
2024/02/09 00:50:32;;;;;;;80.75;50.75;;;10.00;99.90;;;;;;6185437;23;20336;-72
2024/02/09 00:53:04;;;;;;;75.88;49.70;;;10.00;99.90;;;;;;6158855;23;20375;-71
2024/02/09 00:55:30;;;;;;;78.78;49.15;;;10.00;99.90;;;;;;6185120;23;20332;-71
2024/02/09 00:57:59;;;;;;;73.40;48.25;;;10.00;99.90;;;;;;6185283;23;20442;-70
2024/02/09 01:00:26;;;;;;;80.05;48.83;;;10.00;99.90;;;;;;6158741;23;20005;-72
2024/02/09 01:02:51;;;;;;;79.95;48.70;;;10.00;99.90;;;;;;6158739;23;20388;-73
2024/02/09 01:05:18;;;;;;;82.35;50.17;;;10.00;99.90;;;;;;6185445;23;20109;-70
2024/02/09 01:07:50;;;;;;;83.43;49.37;;;10.00;99.90;;;;;;6185534;23;20045;-71
2024/02/09 01:10:16;;;;;;;78.22;48.95;;;10.00;99.90;;;;;;6185046;23;20021;-70
2024/02/09 02:46:51;;;;;;;87.43;49.97;;;10.00;99.90;;;;;;6158641;23;20013;-71
2024/02/09 03:05:44;;;;;;;83.07;49.08;;;10.00;99.90;;;;;;6157838;23;20068;-73
2024/02/09 03:08:10;;;;;;;88.82;49.13;;;10.00;99.90;;;;;;6157696;23;20009;-70
2024/02/09 03:10:36;;;;;;;88.82;49.38;;;10.00;99.90;;;;;;6172623;23;20017;-71
2024/02/09 03:13:02;;;;;;;85.50;49.63;;;10.00;99.90;;;;;;6187444;23;20000;-70
2024/02/09 03:15:28;;;;;;;82.78;48.97;;;10.10;99.90;;;;;;6187818;23;20033;-71
2024/02/09 03:17:54;;;;;;;76.10;46.58;;;10.10;99.90;;;;;;6187838;23;19997;-71
2024/02/09 03:20:20;;;;;;;79.75;46.38;;;10.00;99.90;;;;;;6161584;23;20087;-71
2024/02/09 03:22:46;;;;;;;75.75;46.35;;;10.00;99.90;;;;;;6188713;23;20001;-70
2024/02/09 03:25:12;;;;;;;70.80;44.15;;;10.10;99.90;;;;;;6188461;23;20457;-70
2024/02/09 03:27:41;;;;;;;73.38;45.15;;;10.00;99.90;;;;;;6188544;23;20001;-70
2024/02/09 03:54:19;;;;;;;72.25;44.08;;;10.00;99.90;;;;;;6095048;23;20049;-72
2024/02/09 03:56:46;;;;;;;76.80;44.33;;;10.00;99.90;;;;;;6100450;23;20314;-70
2024/02/09 03:59:12;;;;;;;82.53;45.22;;;10.00;99.90;;;;;;6144284;23;20020;-70
2024/02/09 04:01:38;;;;;;;78.10;44.72;;;10.00;99.90;;;;;;6186197;23;20024;-71
2024/02/09 04:04:04;;;;;;;73.63;43.72;;;10.00;99.90;;;;;;6185603;23;20396;-70
2024/02/09 04:06:30;;;;;;;70.30;42.17;;;10.10;99.90;;;;;;6185404;23;19997;-71
2024/02/09 04:08:56;;;;;;;75.93;43.70;;;10.10;99.90;;;;;;6185530;23;20063;-70
2024/02/09 04:11:28;;;;;;;73.68;43.22;;;10.10;99.90;;;;;;6185216;23;20067;-70
2024/02/09 04:13:54;;;;;;;69.95;41.83;;;10.00;99.90;;;;;;6159264;23;20386;-71
2024/02/09 04:16:20;;;;;;;74.65;41.90;;;10.00;99.90;;;;;;6185738;23;20076;-71
2024/02/09 04:18:47;;;;;;;74.40;42.90;;;10.00;99.90;;;;;;6186157;23;20332;-71
2024/02/09 04:21:15;;;;;;;71.45;41.75;;;10.00;99.90;;;;;;6186065;23;20382;-70
2024/02/09 04:23:42;;;;;;;68.10;41.70;;;10.00;99.90;;;;;;6186021;23;20063;-70
2024/02/09 04:26:08;;;;;;;72.43;42.10;;;10.00;99.90;;;;;;6185758;23;20147;-70
2024/02/09 04:28:34;;;;;;;75.38;44.17;;;10.00;99.90;;;;;;6186294;23;20055;-70
2024/02/09 04:31:00;;;;;;;62.15;40.65;;;10.00;99.90;;;;;;6185753;23;20095;-70
2024/02/09 04:33:26;;;;;;;70.78;44.08;;;10.00;99.90;;;;;;6185537;23;20024;-70
2024/02/09 04:35:54;;;;;;;66.30;40.50;;;10.00;99.90;;;;;;6185651;23;20012;-71
2024/02/09 04:38:20;;;;;;;63.90;39.95;;;10.00;99.90;;;;;;6185615;23;20008;-70
2024/02/09 04:40:46;;;;;;;67.43;44.72;;;10.00;99.90;;;;;;6185678;23;20013;-70
2024/02/09 04:43:11;;;;;;;69.43;43.00;;;10.00;99.90;;;;;;6185445;23;20005;-70
2024/02/09 04:45:37;;;;;;;63.35;40.75;;;10.00;99.90;;;;;;6185577;23;20005;-70
2024/02/09 04:48:03;;;;;;;64.93;38.40;;;10.00;99.90;;;;;;6185567;23;20083;-70
2024/02/09 04:50:29;;;;;;;65.10;38.35;;;10.00;99.90;;;;;;6185336;23;20021;-70
2024/02/09 04:52:55;;;;;;;66.55;39.20;;;10.00;99.90;;;;;;6185249;23;20002;-70
2024/02/09 04:55:21;;;;;;;60.40;37.88;;;10.00;99.90;;;;;;6186217;23;20008;-70
2024/02/09 04:57:47;;;;;;;66.70;40.00;;;10.00;99.90;;;;;;6186134;23;20032;-71
2024/02/09 05:00:13;;;;;;;59.70;37.15;;;10.00;99.90;;;;;;6185969;23;20420;-70
2024/02/09 05:02:43;;;;;;;60.13;38.17;;;10.00;99.90;;;;;;6186243;23;20001;-70
2024/02/09 05:09:08;;;;;;;60.33;39.30;;;10.00;99.90;;;;;;6062728;23;20575;-70
2024/02/09 05:11:36;;;;;;;63.90;40.25;;;10.00;99.90;;;;;;6065432;23;20023;-70
2024/02/09 05:14:19;;;;;;;65.40;40.30;;;10.00;99.90;;;;;;6178580;23;20087;-70
2024/02/09 05:16:50;;;;;;;65.78;40.17;;;10.00;99.90;;;;;;6184208;23;20333;-72
2024/02/09 05:26:02;;;;;;;61.90;38.83;;;10.00;99.90;;;;;;6037899;23;20055;-70
2024/02/09 05:32:07;;;;;;;59.50;36.80;;;10.00;99.90;;;;;;6123248;23;20026;-72
2024/02/09 05:34:33;;;;;;;59.00;36.30;;;9.90;99.90;;;;;;6165626;23;20024;-70
2024/02/09 05:36:59;;;;;;;53.78;35.10;;;9.90;99.90;;;;;;6185066;23;20386;-71
2024/02/09 05:39:24;;;;;;;54.85;35.10;;;10.00;99.90;;;;;;6184974;23;20004;-70
2024/02/09 05:41:51;;;;;;;60.55;36.67;;;10.00;99.90;;;;;;6185117;23;20013;-70
2024/02/09 05:44:16;;;;;;;56.20;36.35;;;10.00;99.90;;;;;;6185223;23;19997;-70
2024/02/09 05:46:42;;;;;;;55.65;37.10;;;10.00;99.90;;;;;;6184977;23;20012;-71
2024/02/09 05:49:08;;;;;;;58.05;35.67;;;10.00;99.90;;;;;;6184884;23;20005;-70
2024/02/09 05:51:33;;;;;;;55.35;35.92;;;10.00;99.90;;;;;;6184670;23;20058;-70
2024/02/09 05:54:00;;;;;;;56.42;36.40;;;10.00;99.90;;;;;;6184845;23;20067;-70
2024/02/09 05:56:27;;;;;;;56.72;35.55;;;10.00;99.90;;;;;;6184852;23;20383;-70
2024/02/09 05:58:56;;;;;;;49.85;34.10;;;10.00;99.90;;;;;;6184700;23;20443;-70
2024/02/09 06:01:29;;;;;;;51.33;34.25;;;10.00;99.90;;;;;;6184841;23;20009;-70
2024/02/09 06:03:55;;;;;;;50.03;34.53;;;10.00;99.90;;;;;;6184438;23;20048;-71
2024/02/09 06:06:21;;;;;;;47.35;32.17;;;10.00;99.90;;;;;;6184350;23;20009;-70
2024/02/09 06:08:48;;;;;;;49.30;30.65;;;10.00;99.90;;;;;;6185007;23;19997;-71
2024/02/09 06:11:17;;;;;;;53.80;34.05;;;10.00;99.90;;;;;;6184294;23;20074;-70
2024/02/09 06:13:46;;;;;;;53.90;33.70;;;10.00;99.90;;;;;;6184693;23;20108;-72
2024/02/09 06:16:13;;;;;;;61.80;35.80;;;10.00;99.90;;;;;;6157858;23;20088;-72
2024/02/09 06:18:39;;;;;;;51.95;32.55;;;10.10;99.90;;;;;;6184532;23;20028;-70
2024/02/09 06:21:05;;;;;;;46.10;32.08;;;10.00;99.90;;;;;;6184111;23;20490;-70
2024/02/09 06:23:33;;;;;;;48.97;31.67;;;10.00;99.90;;;;;;6184352;23;20001;-70
2024/02/09 06:25:59;;;;;;;47.30;30.77;;;10.10;99.90;;;;;;6184325;23;20001;-70
2024/02/09 06:28:25;;;;;;;47.80;28.88;;;10.00;99.90;;;;;;6184239;23;20325;-71
2024/02/09 06:30:51;;;;;;;50.08;28.35;;;10.10;99.90;;;;;;6182977;23;20013;-72
2024/02/09 06:33:21;;;;;;;43.78;28.02;;;10.00;99.90;;;;;;6184190;23;19997;-70
2024/02/09 06:35:47;;;;;;;48.67;28.85;;;10.00;99.90;;;;;;6185222;23;20032;-70
2024/02/09 06:38:14;;;;;;;51.63;29.23;;;10.00;99.90;;;;;;6184865;23;20009;-70
2024/02/09 06:40:44;;;;;;;48.67;28.33;;;10.10;99.90;;;;;;6184914;23;20037;-71
2024/02/09 06:43:19;;;;;;;44.35;27.98;;;10.10;99.90;;;;;;6185044;23;20355;-70
2024/02/09 06:49:46;;;;;;;36.88;20.17;;;10.10;99.90;;;;;;6181681;23;20032;-70
2024/02/09 06:52:50;;;;;;;40.67;24.48;;;10.20;99.90;;;;;;6035874;23;20119;-71
2024/02/09 06:58:54;;;;;;;45.10;23.98;;;10.20;99.90;;;;;;6007541;23;20184;-71
2024/02/09 07:01:31;;;;;;;40.65;23.60;;;10.20;99.90;;;;;;6007861;23;20048;-70
2024/02/09 07:03:57;;;;;;;42.35;22.13;;;10.20;99.90;;;;;;5992719;23;20015;-73
2024/02/09 07:07:20;;;;;;;33.70;23.15;;;10.20;99.90;;;;;;6018847;23;20007;-73
2024/02/09 07:09:46;;;;;;;43.33;23.83;;;10.20;99.90;;;;;;5954340;23;20328;-71
2024/02/09 07:12:12;;;;;;;51.60;24.48;;;10.20;99.90;;;;;;6035626;23;20114;-71
2024/02/09 07:14:38;;;;;;;38.80;22.80;;;10.20;99.90;;;;;;6036056;23;20426;-71
2024/02/09 07:17:04;;;;;;;43.75;24.10;;;10.20;99.90;;;;;;6166816;23;20436;-71
2024/02/09 07:19:32;;;;;;;42.95;23.92;;;10.20;99.90;;;;;;6186641;23;20001;-70
2024/02/09 07:21:57;;;;;;;37.25;22.95;;;10.30;99.90;;;;;;6186252;23;20316;-71
2024/02/09 07:24:25;;;;;;;42.67;23.55;;;10.20;99.90;;;;;;6186379;23;20029;-71
2024/02/09 07:26:51;;;;;;;40.03;23.80;;;10.30;99.90;;;;;;6159636;23;20016;-70
2024/02/09 07:29:17;;;;;;;42.97;23.70;;;10.30;99.90;;;;;;6159701;23;19997;-70
2024/02/09 07:31:42;;;;;;;41.65;21.90;;;10.30;99.90;;;;;;6185999;23;20013;-71
2024/02/09 07:34:11;;;;;;;38.30;22.58;;;10.30;99.90;;;;;;6186126;23;20415;-71
2024/02/09 07:36:38;;;;;;;40.28;22.45;;;10.30;99.90;;;;;;6185870;23;20033;-70
2024/02/09 07:39:04;;;;;;;35.88;20.85;;;10.30;99.90;;;;;;6185823;23;20005;-70
2024/02/09 07:41:31;;;;;;;40.88;22.75;;;10.30;99.90;;;;;;6185750;23;20510;-71
2024/02/09 07:43:58;;;;;;;40.50;22.23;;;10.40;99.90;;;;;;6186990;23;20090;-71
2024/02/09 07:46:25;;;;;;;38.95;20.52;;;10.40;99.90;;;;;;6160384;23;20446;-71
2024/02/09 07:48:51;;;;;;;41.53;20.17;;;10.40;99.90;;;;;;6185788;23;20012;-73
2024/02/09 07:51:20;;;;;;;36.38;20.38;;;10.40;99.90;;;;;;6186226;23;20436;-73
2024/02/09 07:53:52;;;;;;;41.72;20.63;;;10.40;99.90;;;;;;6186640;23;20431;-73
2024/02/09 07:56:19;;;;;;;38.97;20.67;;;10.40;99.90;;;;;;6160397;23;20005;-72
2024/02/09 07:58:45;;;;;;;36.50;20.17;;;10.40;99.90;;;;;;6186668;23;20004;-72
2024/02/09 08:01:11;;;;;;;38.35;20.42;;;10.40;99.90;;;;;;6186137;23;20009;-72
2024/02/09 08:03:38;;;;;;;36.65;20.75;;;10.40;99.90;;;;;;6186507;23;20076;-72
2024/02/09 08:06:04;;;;;;;41.60;20.35;;;10.40;99.90;;;;;;6186717;23;20420;-72
2024/02/09 08:08:30;;;;;;;41.22;21.33;;;10.40;99.90;;;;;;6187036;23;19997;-71
2024/02/09 08:10:57;;;;;;;39.45;20.60;;;10.50;99.90;;;;;;6186526;23;20444;-70
2024/02/09 08:13:23;;;;;;;34.35;20.50;;;10.50;99.90;;;;;;6160454;23;20377;-71
2024/02/09 08:15:51;;;;;;;34.90;20.02;;;10.50;99.90;;;;;;6186997;23;20005;-71
2024/02/09 08:18:17;;;;;;;36.42;21.05;;;10.50;99.90;;;;;;6186702;23;20011;-71
2024/02/09 08:47:28;;;;;;;43.80;20.27;;;10.60;99.90;;;;;;6110970;23;20012;-73
2024/02/09 08:49:56;;;;;;;41.88;21.40;;;10.60;99.90;;;;;;6213152;23;20072;-73
2024/02/09 08:52:21;;;;;;;44.03;23.27;;;10.60;99.90;;;;;;6216824;23;20358;-73
2024/02/09 08:54:47;;;;;;;48.28;21.73;;;10.60;99.90;;;;;;6216661;23;20096;-72
2024/02/09 08:58:06;;;;;;;38.95;19.17;;;10.60;99.90;;;;;;6216918;23;20431;-73
2024/02/09 09:08:09;;;;;;;40.33;19.55;;;10.60;99.90;;;;;;6037189;23;20098;-73
2024/02/09 09:17:03;;;;;;;42.97;19.60;;;10.60;99.90;;;;;;6041034;23;20358;-72
2024/02/09 09:23:05;;;;;;;41.75;19.55;;;10.70;99.90;;;;;;6093567;23;20065;-72
2024/02/09 09:25:31;;;;;;;34.72;18.05;;;10.70;99.90;;;;;;6206419;23;20009;-73
2024/02/09 09:27:58;;;;;;;31.50;16.65;;;10.70;99.90;;;;;;6215533;23;20415;-73
2024/02/09 09:30:28;;;;;;;34.03;16.80;;;10.70;99.90;;;;;;6215493;23;20542;-73
2024/02/09 09:32:55;;;;;;;35.50;16.85;;;10.70;99.90;;;;;;6215546;23;20032;-72
2024/02/09 09:35:23;;;;;;;34.30;17.30;;;10.70;99.90;;;;;;6215828;23;20096;-73
2024/02/09 09:37:49;;;;;;;33.38;16.52;;;10.70;99.90;;;;;;6215348;23;20015;-73
2024/02/09 09:40:18;;;;;;;31.08;16.52;;;10.80;99.90;;;;;;6214707;23;20056;-73
2024/02/09 09:42:44;;;;;;;32.95;15.60;;;10.80;99.90;;;;;;6215437;23;19996;-73
2024/02/09 09:45:10;;;;;;;31.10;15.52;;;10.80;99.90;;;;;;6209477;23;20015;-72
2024/02/09 09:47:44;;;;;;;31.48;15.15;;;10.80;99.90;;;;;;6215671;23;20335;-73
2024/02/09 09:50:11;;;;;;;36.22;17.73;;;10.80;99.90;;;;;;6215319;23;20342;-73
2024/02/09 09:52:48;;;;;;;29.23;15.93;;;10.80;99.90;;;;;;6215248;23;20512;-73
2024/02/09 09:55:18;;;;;;;35.08;17.35;;;10.80;99.90;;;;;;6214712;23;20415;-73
2024/02/09 09:57:44;;;;;;;33.13;15.82;;;10.80;99.90;;;;;;6215107;23;20040;-73
2024/02/09 10:00:12;;;;;;;30.80;17.35;;;10.80;99.90;;;;;;6215443;23;19997;-72
2024/02/09 10:02:38;;;;;;;31.20;16.10;;;10.90;99.90;;;;;;6202796;23;20489;-73
2024/02/09 10:05:05;;;;;;;29.77;15.40;;;10.90;99.90;;;;;;6215240;23;20007;-73
2024/02/09 10:07:31;;;;;;;37.88;14.95;;;10.90;99.90;;;;;;6215159;23;20014;-73
2024/02/09 10:09:58;;;;;;;38.80;16.75;;;10.90;99.90;;;;;;6215282;23;20067;-72
2024/02/09 10:12:24;;;;;;;29.38;16.15;;;10.90;99.90;;;;;;6215138;23;20009;-72
2024/02/09 10:14:50;;;;;;;39.53;17.17;;;10.90;99.90;;;;;;6214943;23;20083;-73
2024/02/09 10:17:16;;;;;;;31.38;16.05;;;10.90;99.90;;;;;;6215153;23;20001;-73
2024/02/09 10:19:43;;;;;;;36.13;15.60;;;10.90;99.90;;;;;;6215022;23;20533;-73
2024/02/09 10:22:09;;;;;;;37.70;16.73;;;10.90;99.90;;;;;;6215059;23;20000;-70
2024/02/09 10:24:40;;;;;;;27.15;15.57;;;10.90;99.90;;;;;;6215016;23;20012;-70
2024/02/09 10:27:06;;;;;;;29.23;16.45;;;10.90;99.90;;;;;;6215840;23;20012;-73
2024/02/09 10:29:32;;;;;;;36.85;16.88;;;10.90;99.90;;;;;;6215673;23;20053;-73
2024/02/09 10:32:01;;;;;;;34.17;17.98;;;11.00;99.90;;;;;;6215660;23;20004;-72
2024/02/09 10:48:12;;;;;;;30.42;16.52;;;11.00;99.90;;;;;;6024845;23;20069;-73
2024/02/09 10:58:07;;;;;;;34.00;15.00;;;11.00;99.90;;;;;;6010172;23;20019;-73
2024/02/09 11:00:38;;;;;;;29.85;14.77;;;11.00;99.90;;;;;;6009846;23;20015;-73
2024/02/09 11:03:04;;;;;;;33.45;14.52;;;11.00;99.90;;;;;;6037445;23;20036;-72
2024/02/09 11:05:30;;;;;;;35.33;15.93;;;11.00;99.90;;;;;;6167382;23;20439;-73
2024/02/09 11:07:57;;;;;;;31.88;13.40;;;11.00;99.90;;;;;;6216235;23;20067;-73
2024/02/09 11:10:23;;;;;;;31.08;14.88;;;11.00;99.90;;;;;;6216635;23;19997;-73
2024/02/09 11:12:59;;;;;;;34.90;14.85;;;11.10;99.90;;;;;;6216660;23;20009;-73
2024/02/09 11:15:34;;;;;;;29.67;14.95;;;11.00;99.90;;;;;;6179568;23;20008;-74
2024/02/09 11:18:01;;;;;;;35.60;15.32;;;11.00;99.90;;;;;;6214729;23;19996;-72
2024/02/09 11:20:32;;;;;;;36.67;15.73;;;11.00;99.90;;;;;;6245774;23;20004;-72
2024/02/09 11:23:00;;;;;;;32.42;14.23;;;11.00;99.90;;;;;;6246463;23;20032;-72
2024/02/09 11:25:34;;;;;;;23.48;13.30;;;11.00;99.90;;;;;;6246729;23;20443;-72
2024/02/09 11:28:06;;;;;;;32.08;13.52;;;11.00;99.90;;;;;;6245926;23;20004;-73
2024/02/09 11:30:32;;;;;;;29.42;13.98;;;11.00;99.90;;;;;;6245798;23;20425;-73
2024/02/09 11:33:01;;;;;;;36.63;14.23;;;11.10;99.90;;;;;;6246196;23;19996;-72
2024/02/09 11:35:29;;;;;;;37.10;14.32;;;11.10;99.90;;;;;;6246667;23;20000;-72
2024/02/09 11:37:57;;;;;;;31.30;13.48;;;11.10;99.90;;;;;;6246704;23;20007;-75
2024/02/09 11:40:23;;;;;;;33.85;13.48;;;11.10;99.90;;;;;;6246774;23;20019;-75
2024/02/09 11:42:49;;;;;;;35.75;13.77;;;11.10;99.90;;;;;;6246360;23;20007;-74
2024/02/09 11:45:15;;;;;;;34.75;13.65;;;11.10;99.90;;;;;;6218900;23;20449;-74
2024/02/09 11:47:41;;;;;;;30.05;13.93;;;11.10;99.90;;;;;;6245897;23;20000;-74
2024/02/09 11:50:21;;;;;;;36.10;14.18;;;11.10;99.90;;;;;;6245537;23;20323;-74
2024/02/09 11:52:48;;;;;;;40.17;14.13;;;11.10;99.90;;;;;;6245292;22;20506;-74
2024/02/09 11:55:14;;;;;;;35.58;13.98;;;11.10;99.90;;;;;;6246037;22;19996;-72
2024/02/09 11:57:41;;;;;;;26.92;14.27;;;11.10;99.90;;;;;;6246535;23;20004;-73
2024/02/09 12:00:08;;;;;;;29.38;14.25;;;11.10;99.90;;;;;;6244828;23;20008;-72
2024/02/09 12:02:43;;;;;;;29.55;12.77;;;11.10;99.90;;;;;;6246107;23;20071;-73
2024/02/09 12:05:12;;;;;;;28.42;12.75;;;11.10;99.90;;;;;;6245268;23;20083;-72
2024/02/09 12:33:51;;;;;;;35.53;14.20;;;11.10;99.90;;;;;;6238328;22;20019;-72
2024/02/09 12:36:21;;;;;;;32.67;14.00;;;11.10;99.90;;;;;;6246367;22;20335;-73
2024/02/09 12:38:58;;;;;;;27.77;13.40;;;11.10;99.90;;;;;;6243554;22;20034;-73
2024/02/09 12:41:27;;;;;;;35.55;13.93;;;11.10;99.90;;;;;;6243141;22;20000;-73
2024/02/09 12:43:57;;;;;;;35.58;13.70;;;11.10;99.90;;;;;;6243163;22;20349;-71
2024/02/09 12:46:26;;;;;;;30.42;13.15;;;11.20;99.90;;;;;;6246375;22;20000;-73
2024/02/09 12:48:54;;;;;;;36.25;15.43;;;11.10;99.90;;;;;;6243983;23;20436;-73
2024/02/09 12:51:20;;;;;;;35.70;14.15;;;11.10;99.90;;;;;;6245918;22;20337;-72
2024/02/09 12:53:46;;;;;;;27.23;13.50;;;11.20;99.90;;;;;;6245705;23;20075;-70
2024/02/09 12:56:12;;;;;;;28.63;14.05;;;11.20;99.90;;;;;;6244611;23;20115;-73
2024/02/09 12:58:38;;;;;;;35.15;13.40;;;11.20;99.90;;;;;;6246465;22;20004;-72
2024/02/09 13:01:04;;;;;;;32.45;13.43;;;11.20;99.90;;;;;;6245064;23;20083;-73
2024/02/09 13:03:30;;;;;;;35.58;13.90;;;11.20;99.90;;;;;;6245814;22;20449;-73
2024/02/09 13:05:56;;;;;;;28.52;12.85;;;11.20;99.90;;;;;;6243905;23;20004;-73
2024/02/09 13:08:22;;;;;;;36.83;16.38;;;11.20;99.90;;;;;;6245869;22;20467;-73
2024/02/09 13:10:49;;;;;;;31.88;16.17;;;11.20;99.90;;;;;;6244291;23;20004;-73
2024/02/09 13:13:16;;;;;;;35.88;14.35;;;11.20;99.90;;;;;;6245738;22;20008;-73
2024/02/09 13:15:42;;;;;;;41.40;14.32;;;11.20;99.90;;;;;;6243947;23;20422;-72
2024/02/09 13:18:10;;;;;;;33.05;12.40;;;11.20;99.90;;;;;;6245630;22;20004;-73
2024/02/09 13:20:36;;;;;;;36.22;13.85;;;11.20;99.90;;;;;;6243754;23;20034;-72
2024/02/09 13:23:03;;;;;;;38.42;13.05;;;11.20;99.90;;;;;;6245979;22;20026;-73
2024/02/09 13:25:37;;;;;;;27.85;13.52;;;11.30;99.90;;;;;;6246317;22;20000;-73
2024/02/09 13:28:06;;;;;;;36.22;12.15;;;11.30;99.90;;;;;;6245789;22;20007;-73
2024/02/09 13:30:35;;;;;;;36.60;11.50;;;11.30;99.90;;;;;;6245555;22;20004;-72
2024/02/09 13:33:02;;;;;;;36.63;13.23;;;11.30;99.90;;;;;;6246442;22;20004;-72
2024/02/09 13:35:28;;;;;;;27.83;12.57;;;11.30;99.90;;;;;;6246554;22;20078;-72
2024/02/09 13:37:57;;;;;;;32.58;12.23;;;11.30;99.90;;;;;;6246385;22;20050;-73
2024/02/09 14:08:17;;;;;;;29.88;10.25;;;11.40;99.90;;;;;;6112716;22;20020;-72
2024/02/09 14:10:43;;;;;;;36.33;11.13;;;11.40;99.90;;;;;;6245348;22;20040;-73
2024/02/09 14:13:09;;;;;;;30.52;11.10;;;11.40;99.90;;;;;;6245100;23;20363;-72
2024/02/09 14:15:35;;;;;;;37.85;10.57;;;11.40;99.90;;;;;;6243805;22;20050;-73
2024/02/09 14:18:01;;;;;;;36.58;10.85;;;11.40;99.90;;;;;;6244622;22;20004;-73
2024/02/09 14:20:26;;;;;;;34.45;11.82;;;11.40;99.90;;;;;;6243635;23;19996;-72
2024/02/09 14:22:53;;;;;;;33.20;11.20;;;11.40;99.90;;;;;;6244317;23;20000;-72
2024/02/09 14:25:19;;;;;;;34.10;11.65;;;11.40;99.90;;;;;;6244106;23;20338;-73
2024/02/09 14:27:45;;;;;;;37.00;14.10;;;11.40;99.90;;;;;;6244986;22;20000;-73
2024/02/09 14:30:12;;;;;;;25.27;10.68;;;11.40;99.90;;;;;;6243097;22;20589;-72
2024/02/09 14:32:38;;;;;;;25.65;9.27;;;11.40;99.90;;;;;;6241100;23;20103;-72
2024/02/09 14:35:05;;;;;;;32.08;9.50;;;11.40;99.90;;;;;;6243083;22;20023;-73
2024/02/09 14:37:31;;;;;;;31.90;10.02;;;11.50;99.90;;;;;;6243385;22;20024;-72
2024/02/09 14:39:56;;;;;;;32.20;10.25;;;11.50;99.90;;;;;;6243113;22;20079;-72
2024/02/09 14:42:24;;;;;;;33.35;9.60;;;11.50;99.90;;;;;;6242980;22;20006;-73
2024/02/09 14:44:50;;;;;;;32.00;9.75;;;11.40;99.90;;;;;;6244401;22;20000;-74
2024/02/09 14:47:16;;;;;;;29.05;8.98;;;11.50;99.90;;;;;;6245107;22;20049;-74
2024/02/09 14:49:49;;;;;;;42.58;22.05;;;11.50;99.90;;;;;;6245367;22;20071;-74
2024/02/09 14:52:15;;;;;;;;;;;11.40;99.90;;;;;;6245537;22;20027;-75
2024/02/09 14:54:41;;;;;;;30.38;17.33;;;11.40;99.90;;;;;;6244910;22;19982;-74
2024/02/09 14:57:07;;;;;;;38.03;13.05;;;11.40;99.90;;;;;;6244790;22;20029;-74
2024/02/09 14:59:33;;;;;;;35.75;12.02;;;11.40;99.90;;;;;;6245176;22;20047;-74
2024/02/09 15:01:59;;;;;;;30.63;13.32;;;11.50;99.90;;;;;;6244999;23;20004;-74
2024/02/09 15:04:25;;;;;;;34.05;10.45;;;11.40;99.90;;;;;;6245877;22;20006;-73
2024/02/09 15:06:51;;;;;;;24.95;10.20;;;11.40;99.90;;;;;;6246046;22;20050;-72
2024/02/09 15:09:18;;;;;;;34.88;11.40;;;11.40;99.90;;;;;;6246112;22;20318;-72
2024/02/09 15:11:44;;;;;;;29.30;10.02;;;11.40;99.90;;;;;;6245879;22;20012;-72
2024/02/09 15:14:11;;;;;;;26.15;9.10;;;11.40;99.90;;;;;;6246066;22;20008;-72
2024/02/09 15:35:03;;;;;;;28.35;10.10;;;11.40;99.90;;;;;;6036404;23;20031;-72
2024/02/09 15:41:19;;;;;;;27.92;9.93;;;11.40;99.90;;;;;;6066864;23;20011;-72
2024/02/09 15:43:45;;;;;;;28.13;10.45;;;11.40;99.90;;;;;;6066654;23;20326;-72
2024/02/09 15:46:16;;;;;;;24.58;10.23;;;11.40;99.90;;;;;;6050090;23;20341;-72
2024/02/09 15:48:52;;;;;;;27.63;10.38;;;11.40;99.90;;;;;;6205945;22;20377;-72
2024/02/09 15:51:23;;;;;;;33.20;11.15;;;11.40;99.90;;;;;;6245622;22;20012;-72
2024/02/09 15:53:52;;;;;;;21.85;10.80;;;11.40;99.90;;;;;;6243504;22;20027;-72
2024/02/09 15:56:21;;;;;;;32.53;12.15;;;11.40;99.90;;;;;;6243045;22;20000;-72
2024/02/09 15:58:48;;;;;;;32.00;13.60;;;11.40;99.90;;;;;;6243585;23;20433;-72
2024/02/09 16:01:14;;;;;;;31.02;12.23;;;11.40;99.90;;;;;;6247092;22;20307;-73
2024/02/09 16:03:42;;;;;;;31.90;13.45;;;11.40;99.90;;;;;;6246492;23;20003;-73
2024/02/09 16:06:08;;;;;;;25.08;12.00;;;11.40;99.90;;;;;;6246632;22;20028;-72
2024/02/09 16:08:36;;;;;;;27.42;13.30;;;11.40;99.90;;;;;;6246926;22;19996;-70
2024/02/09 16:11:02;;;;;;;35.88;14.50;;;11.40;99.90;;;;;;6246737;22;20011;-72
2024/02/09 16:13:27;;;;;;;52.53;25.58;;;11.40;99.90;;;;;;6246918;22;20012;-72
2024/02/09 16:15:53;;;;;;;37.58;20.55;;;11.40;99.90;;;;;;6246372;22;20000;-74
2024/02/09 16:18:19;;;;;;;28.80;13.95;;;11.40;99.90;;;;;;6246528;23;20000;-73
2024/02/09 16:20:45;;;;;;;40.72;13.25;;;11.40;99.90;;;;;;6246739;22;20011;-73
2024/02/09 16:23:12;;;;;;;19.75;12.13;;;11.40;99.90;;;;;;6246783;22;20030;-72
2024/02/09 16:25:38;;;;;;;30.05;13.10;;;11.40;99.90;;;;;;6246397;22;20000;-72
2024/02/09 16:28:06;;;;;;;34.15;14.07;;;11.40;99.90;;;;;;6246579;23;20027;-72
2024/02/09 16:30:33;;;;;;;34.83;15.32;;;11.30;99.90;;;;;;6245863;22;20000;-72
2024/02/09 16:32:59;;;;;;;33.47;16.35;;;11.40;99.90;;;;;;6246117;22;20090;-72
2024/02/09 16:35:25;;;;;;;41.47;16.73;;;11.30;99.90;;;;;;6246220;22;20028;-72
2024/02/09 16:37:51;;;;;;;27.88;14.05;;;11.40;99.90;;;;;;6245869;22;20008;-72
2024/02/09 16:40:18;;;;;;;27.20;11.40;;;11.40;99.90;;;;;;6246096;22;20422;-72
2024/02/09 16:42:44;;;;;;;32.13;14.10;;;11.40;99.90;;;;;;6246644;22;20010;-72
2024/02/09 16:45:12;;;;;;;34.70;13.98;;;11.30;99.90;;;;;;6246777;22;20000;-72
2024/02/09 16:47:38;;;;;;;31.65;15.82;;;11.40;99.90;;;;;;6246914;22;20307;-72
2024/02/09 16:50:04;;;;;;;38.00;16.23;;;11.40;99.90;;;;;;6246740;23;20004;-72
2024/02/09 17:17:13;;;;;;;33.97;18.58;;;11.40;99.90;;;;;;6001308;23;20451;-72
2024/02/09 17:19:40;;;;;;;32.70;17.90;;;11.40;99.90;;;;;;6039020;23;20386;-73
2024/02/09 17:22:06;;;;;;;31.75;16.48;;;11.30;99.90;;;;;;6143817;22;20310;-72
2024/02/09 17:24:32;;;;;;;37.88;17.05;;;11.30;99.90;;;;;;6246004;23;20385;-73
2024/02/09 17:26:59;;;;;;;42.22;20.58;;;11.30;99.90;;;;;;6245735;22;20067;-73
2024/02/09 17:29:26;;;;;;;38.65;16.35;;;11.30;99.90;;;;;;6245640;22;20004;-73
2024/02/09 17:31:52;;;;;;;33.63;14.98;;;11.40;99.90;;;;;;6245739;22;20342;-73
2024/02/09 17:34:17;;;;;;;29.15;14.45;;;11.30;99.90;;;;;;6245664;22;20000;-73
2024/02/09 17:36:43;;;;;;;30.10;14.23;;;11.40;99.90;;;;;;6245595;23;20000;-73
2024/02/09 17:39:09;;;;;;;30.42;13.15;;;11.40;99.90;;;;;;6245714;22;20000;-73
2024/02/09 17:41:35;;;;;;;38.33;17.75;;;11.40;99.90;;;;;;6245404;22;20004;-73
2024/02/09 17:44:00;;;;;;;46.38;27.75;;;11.30;99.90;;;;;;6245365;22;20049;-73
2024/02/09 17:46:27;;;;;;;29.67;19.35;;;11.40;99.90;;;;;;6245842;23;20004;-73
2024/02/09 17:48:53;;;;;;;25.25;10.40;;;11.40;99.90;;;;;;6246080;22;20436;-72
2024/02/09 17:51:19;;;;;;;29.48;9.30;;;11.40;99.90;;;;;;6245451;22;20423;-73
2024/02/09 17:53:45;;;;;;;25.85;8.23;;;11.30;99.90;;;;;;6245113;22;20023;-73
2024/02/09 17:56:13;;;;;;;25.58;8.70;;;11.40;99.90;;;;;;6245651;23;20008;-75
2024/02/09 17:58:40;;;;;;;33.78;9.40;;;11.40;99.90;;;;;;6245946;23;20011;-76
2024/02/09 18:01:05;;;;;;;22.50;8.63;;;11.40;99.90;;;;;;6243613;23;20135;-75
2024/02/09 18:03:31;;;;;;;24.27;8.18;;;11.40;99.90;;;;;;6245363;22;20039;-75
2024/02/09 18:05:57;;;;;;;25.55;9.10;;;11.40;99.90;;;;;;6245032;23;19996;-75
2024/02/09 18:08:24;;;;;;;22.25;8.88;;;11.40;99.90;;;;;;6245757;22;20000;-75
2024/02/09 18:10:50;;;;;;;20.40;8.05;;;11.40;99.90;;;;;;6245714;22;20007;-75
2024/02/09 18:13:16;;;;;;;24.80;9.18;;;11.40;99.90;;;;;;6245956;22;20077;-74
2024/02/09 18:15:41;;;;;;;20.90;8.32;;;11.40;99.90;;;;;;6246358;22;20000;-73
2024/02/09 18:18:08;;;;;;;25.42;7.95;;;11.40;99.90;;;;;;6246230;23;20000;-73